sensor_id;sensor_type;location;lat;lon;timestamp;temperature;humidity
22838;DHT22;11585;51.450;-0.240;2022-10-16T00:00:30;15.10;99.90
22838;DHT22;11585;51.450;-0.240;2022-10-16T00:03:00;15.10;99.90
22838;DHT22;11585;51.450;-0.240;2022-10-16T00:05:28;15.10;99.90
22838;DHT22;11585;51.450;-0.240;2022-10-16T00:07:55;15.10;99.90
22838;DHT22;11585;51.450;-0.240;2022-10-16T00:10:23;15.10;99.90
22838;DHT22;11585;51.450;-0.240;2022-10-16T00:12:49;15.10;99.90
22838;DHT22;11585;51.450;-0.240;2022-10-16T00:15:15;15.10;99.90
22838;DHT22;11585;51.450;-0.240;2022-10-16T00:17:45;15.10;99.90
22838;DHT22;11585;51.450;-0.240;2022-10-16T00:20:11;15.10;99.90
22838;DHT22;11585;51.450;-0.240;2022-10-16T00:22:37;15.10;99.90
22838;DHT22;11585;51.450;-0.240;2022-10-16T00:25:06;15.10;99.90
22838;DHT22;11585;51.450;-0.240;2022-10-16T00:27:32;15.10;99.90
22838;DHT22;11585;51.450;-0.240;2022-10-16T00:29:58;15.00;99.90
22838;DHT22;11585;51.450;-0.240;2022-10-16T00:32:24;15.10;99.90
22838;DHT22;11585;51.450;-0.240;2022-10-16T00:34:49;15.00;99.90
22838;DHT22;11585;51.450;-0.240;2022-10-16T00:37:16;15.00;99.90
22838;DHT22;11585;51.450;-0.240;2022-10-16T00:39:41;15.10;99.90
22838;DHT22;11585;51.450;-0.240;2022-10-16T00:42:14;15.10;99.90
22838;DHT22;11585;51.450;-0.240;2022-10-16T00:44:55;15.00;99.90
22838;DHT22;11585;51.450;-0.240;2022-10-16T00:47:29;15.10;99.90
22838;DHT22;11585;51.450;-0.240;2022-10-16T00:49:59;15.00;99.90
22838;DHT22;11585;51.450;-0.240;2022-10-16T00:52:29;15.00;99.90
22838;DHT22;11585;51.450;-0.240;2022-10-16T00:54:55;15.00;99.90
22838;DHT22;11585;51.450;-0.240;2022-10-16T00:57:31;15.00;99.90
22838;DHT22;11585;51.450;-0.240;2022-10-16T01:00:07;15.00;99.90
22838;DHT22;11585;51.450;-0.240;2022-10-16T01:03:00;15.00;99.90
22838;DHT22;11585;51.450;-0.240;2022-10-16T01:05:52;15.00;99.90
22838;DHT22;11585;51.450;-0.240;2022-10-16T01:12:01;15.00;99.90
22838;DHT22;11585;51.450;-0.240;2022-10-16T01:20:37;14.90;99.90
22838;DHT22;11585;51.450;-0.240;2022-10-16T01:23:35;14.90;99.90
22838;DHT22;11585;51.450;-0.240;2022-10-16T01:35:02;14.90;99.90
22838;DHT22;11585;51.450;-0.240;2022-10-16T01:37:50;14.90;99.90
22838;DHT22;11585;51.450;-0.240;2022-10-16T01:40:49;14.90;99.90
22838;DHT22;11585;51.450;-0.240;2022-10-16T01:43:39;14.90;99.90
22838;DHT22;11585;51.450;-0.240;2022-10-16T01:46:28;14.80;99.90
22838;DHT22;11585;51.450;-0.240;2022-10-16T01:52:11;14.80;99.90
22838;DHT22;11585;51.450;-0.240;2022-10-16T01:54:51;14.80;99.90
22838;DHT22;11585;51.450;-0.240;2022-10-16T02:01:29;14.80;99.90
22838;DHT22;11585;51.450;-0.240;2022-10-16T02:08:22;14.80;99.90
22838;DHT22;11585;51.450;-0.240;2022-10-16T02:14:05;14.70;99.90
22838;DHT22;11585;51.450;-0.240;2022-10-16T02:19:58;14.70;99.90
22838;DHT22;11585;51.450;-0.240;2022-10-16T02:22:38;14.70;99.90
22838;DHT22;11585;51.450;-0.240;2022-10-16T02:25:40;14.70;99.90
22838;DHT22;11585;51.450;-0.240;2022-10-16T02:31:46;14.70;99.90
22838;DHT22;11585;51.450;-0.240;2022-10-16T02:34:28;14.70;99.90
22838;DHT22;11585;51.450;-0.240;2022-10-16T02:37:03;14.70;99.90
22838;DHT22;11585;51.450;-0.240;2022-10-16T02:39:36;14.70;99.90
22838;DHT22;11585;51.450;-0.240;2022-10-16T02:42:27;14.70;99.90
22838;DHT22;11585;51.450;-0.240;2022-10-16T02:44:58;14.70;99.90
22838;DHT22;11585;51.450;-0.240;2022-10-16T02:47:47;14.70;99.90
22838;DHT22;11585;51.450;-0.240;2022-10-16T02:50:17;14.70;99.90
22838;DHT22;11585;51.450;-0.240;2022-10-16T02:53:08;14.70;99.90
22838;DHT22;11585;51.450;-0.240;2022-10-16T02:55:46;14.70;99.90
22838;DHT22;11585;51.450;-0.240;2022-10-16T02:59:01;14.70;99.90
22838;DHT22;11585;51.450;-0.240;2022-10-16T03:01:51;14.70;99.90
22838;DHT22;11585;51.450;-0.240;2022-10-16T03:21:46;14.60;99.90
22838;DHT22;11585;51.450;-0.240;2022-10-16T03:24:12;14.60;99.90
22838;DHT22;11585;51.450;-0.240;2022-10-16T03:26:40;14.60;99.90
22838;DHT22;11585;51.450;-0.240;2022-10-16T03:29:05;14.60;99.90
22838;DHT22;11585;51.450;-0.240;2022-10-16T03:31:31;14.60;99.90
22838;DHT22;11585;51.450;-0.240;2022-10-16T03:33:57;14.60;99.90
22838;DHT22;11585;51.450;-0.240;2022-10-16T03:36:23;14.60;99.90
22838;DHT22;11585;51.450;-0.240;2022-10-16T03:38:49;14.60;99.90
22838;DHT22;11585;51.450;-0.240;2022-10-16T03:41:15;14.60;99.90
22838;DHT22;11585;51.450;-0.240;2022-10-16T03:43:41;14.60;99.90
22838;DHT22;11585;51.450;-0.240;2022-10-16T03:46:06;14.60;99.90
22838;DHT22;11585;51.450;-0.240;2022-10-16T03:48:33;14.50;99.90
22838;DHT22;11585;51.450;-0.240;2022-10-16T03:50:59;14.50;99.90
22838;DHT22;11585;51.450;-0.240;2022-10-16T03:53:24;14.60;99.90
22838;DHT22;11585;51.450;-0.240;2022-10-16T03:55:50;14.50;99.90
22838;DHT22;11585;51.450;-0.240;2022-10-16T03:58:16;14.50;99.90
22838;DHT22;11585;51.450;-0.240;2022-10-16T04:00:43;14.50;99.90
22838;DHT22;11585;51.450;-0.240;2022-10-16T04:03:10;14.50;99.90
22838;DHT22;11585;51.450;-0.240;2022-10-16T04:05:35;14.50;99.90
22838;DHT22;11585;51.450;-0.240;2022-10-16T04:08:03;14.50;99.90
22838;DHT22;11585;51.450;-0.240;2022-10-16T04:10:29;14.50;99.90
22838;DHT22;11585;51.450;-0.240;2022-10-16T04:12:54;14.50;99.90
22838;DHT22;11585;51.450;-0.240;2022-10-16T04:15:22;14.50;99.90
22838;DHT22;11585;51.450;-0.240;2022-10-16T04:17:49;14.50;99.90
22838;DHT22;11585;51.450;-0.240;2022-10-16T04:20:14;14.50;99.90
22838;DHT22;11585;51.450;-0.240;2022-10-16T04:22:40;14.50;99.90
22838;DHT22;11585;51.450;-0.240;2022-10-16T04:25:06;14.50;99.90
22838;DHT22;11585;51.450;-0.240;2022-10-16T04:27:35;14.50;99.90
22838;DHT22;11585;51.450;-0.240;2022-10-16T04:30:01;14.40;99.90
22838;DHT22;11585;51.450;-0.240;2022-10-16T04:32:26;14.40;99.90
22838;DHT22;11585;51.450;-0.240;2022-10-16T04:34:53;14.40;99.90
22838;DHT22;11585;51.450;-0.240;2022-10-16T04:37:19;14.40;99.90
22838;DHT22;11585;51.450;-0.240;2022-10-16T04:39:48;14.40;99.90
22838;DHT22;11585;51.450;-0.240;2022-10-16T04:42:13;14.40;99.90
22838;DHT22;11585;51.450;-0.240;2022-10-16T04:44:39;14.40;99.90
22838;DHT22;11585;51.450;-0.240;2022-10-16T04:47:06;14.40;99.90
22838;DHT22;11585;51.450;-0.240;2022-10-16T04:49:31;14.40;99.90
22838;DHT22;11585;51.450;-0.240;2022-10-16T04:51:57;14.40;99.90
22838;DHT22;11585;51.450;-0.240;2022-10-16T04:54:22;14.40;99.90
22838;DHT22;11585;51.450;-0.240;2022-10-16T04:56:49;14.40;99.90
22838;DHT22;11585;51.450;-0.240;2022-10-16T04:59:18;14.40;99.90
22838;DHT22;11585;51.450;-0.240;2022-10-16T05:01:44;14.40;99.90
22838;DHT22;11585;51.450;-0.240;2022-10-16T05:04:10;14.30;99.90
22838;DHT22;11585;51.450;-0.240;2022-10-16T05:06:36;14.40;99.90
22838;DHT22;11585;51.450;-0.240;2022-10-16T05:09:04;14.30;99.90
22838;DHT22;11585;51.450;-0.240;2022-10-16T05:11:30;14.40;99.90
22838;DHT22;11585;51.450;-0.240;2022-10-16T05:13:55;14.30;99.90
22838;DHT22;11585;51.450;-0.240;2022-10-16T05:16:21;14.30;99.90
22838;DHT22;11585;51.450;-0.240;2022-10-16T05:18:47;14.30;99.90
22838;DHT22;11585;51.450;-0.240;2022-10-16T05:21:12;14.30;99.90
22838;DHT22;11585;51.450;-0.240;2022-10-16T05:23:38;14.30;99.90
22838;DHT22;11585;51.450;-0.240;2022-10-16T05:26:04;14.30;99.90
22838;DHT22;11585;51.450;-0.240;2022-10-16T05:28:30;14.30;99.90
22838;DHT22;11585;51.450;-0.240;2022-10-16T05:30:57;14.30;99.90
22838;DHT22;11585;51.450;-0.240;2022-10-16T05:33:25;14.20;99.90
22838;DHT22;11585;51.450;-0.240;2022-10-16T05:35:51;14.20;99.90
22838;DHT22;11585;51.450;-0.240;2022-10-16T05:38:18;14.20;99.90
22838;DHT22;11585;51.450;-0.240;2022-10-16T05:40:50;14.20;99.90
22838;DHT22;11585;51.450;-0.240;2022-10-16T05:43:15;14.20;99.90
22838;DHT22;11585;51.450;-0.240;2022-10-16T05:45:41;14.20;99.90
22838;DHT22;11585;51.450;-0.240;2022-10-16T05:48:07;14.20;99.90
22838;DHT22;11585;51.450;-0.240;2022-10-16T05:50:32;14.20;99.90
22838;DHT22;11585;51.450;-0.240;2022-10-16T05:52:58;14.10;99.90
22838;DHT22;11585;51.450;-0.240;2022-10-16T05:55:23;14.10;99.90
22838;DHT22;11585;51.450;-0.240;2022-10-16T05:57:53;14.10;99.90
22838;DHT22;11585;51.450;-0.240;2022-10-16T06:00:19;14.20;99.90
22838;DHT22;11585;51.450;-0.240;2022-10-16T06:02:44;14.10;99.90
22838;DHT22;11585;51.450;-0.240;2022-10-16T06:05:10;14.10;99.90
22838;DHT22;11585;51.450;-0.240;2022-10-16T06:07:36;14.10;99.90
22838;DHT22;11585;51.450;-0.240;2022-10-16T06:10:03;14.10;99.90
22838;DHT22;11585;51.450;-0.240;2022-10-16T06:12:29;14.10;99.90
22838;DHT22;11585;51.450;-0.240;2022-10-16T06:14:54;14.10;99.90
22838;DHT22;11585;51.450;-0.240;2022-10-16T06:17:21;14.10;99.90
22838;DHT22;11585;51.450;-0.240;2022-10-16T06:19:47;14.10;99.90
22838;DHT22;11585;51.450;-0.240;2022-10-16T06:22:12;14.10;99.90
22838;DHT22;11585;51.450;-0.240;2022-10-16T06:24:38;14.10;99.90
22838;DHT22;11585;51.450;-0.240;2022-10-16T06:30:10;14.10;99.90
22838;DHT22;11585;51.450;-0.240;2022-10-16T06:32:36;14.10;99.90
22838;DHT22;11585;51.450;-0.240;2022-10-16T06:35:01;14.00;99.90
22838;DHT22;11585;51.450;-0.240;2022-10-16T06:37:27;14.10;99.90
22838;DHT22;11585;51.450;-0.240;2022-10-16T06:39:53;14.00;99.90
22838;DHT22;11585;51.450;-0.240;2022-10-16T06:42:19;14.00;99.90
22838;DHT22;11585;51.450;-0.240;2022-10-16T06:44:44;14.00;99.90
22838;DHT22;11585;51.450;-0.240;2022-10-16T06:47:10;14.00;99.90
22838;DHT22;11585;51.450;-0.240;2022-10-16T06:49:36;14.00;99.90
22838;DHT22;11585;51.450;-0.240;2022-10-16T06:52:02;14.00;99.90
22838;DHT22;11585;51.450;-0.240;2022-10-16T06:54:28;14.00;99.90
22838;DHT22;11585;51.450;-0.240;2022-10-16T06:56:55;14.00;99.90
22838;DHT22;11585;51.450;-0.240;2022-10-16T06:59:21;14.00;99.90
22838;DHT22;11585;51.450;-0.240;2022-10-16T07:01:47;14.00;99.90
22838;DHT22;11585;51.450;-0.240;2022-10-16T07:04:12;14.00;99.90
22838;DHT22;11585;51.450;-0.240;2022-10-16T07:06:40;14.00;99.90
22838;DHT22;11585;51.450;-0.240;2022-10-16T07:09:09;14.00;99.90
22838;DHT22;11585;51.450;-0.240;2022-10-16T07:11:37;14.00;99.90
22838;DHT22;11585;51.450;-0.240;2022-10-16T07:14:03;14.00;99.90
22838;DHT22;11585;51.450;-0.240;2022-10-16T07:16:30;14.00;99.90
22838;DHT22;11585;51.450;-0.240;2022-10-16T07:18:58;14.00;99.90
22838;DHT22;11585;51.450;-0.240;2022-10-16T07:21:27;14.00;99.90
22838;DHT22;11585;51.450;-0.240;2022-10-16T07:23:56;14.00;99.90
22838;DHT22;11585;51.450;-0.240;2022-10-16T07:26:23;14.00;99.90
22838;DHT22;11585;51.450;-0.240;2022-10-16T07:28:49;13.90;99.90
22838;DHT22;11585;51.450;-0.240;2022-10-16T07:31:16;13.90;99.90
22838;DHT22;11585;51.450;-0.240;2022-10-16T07:33:43;13.90;99.90
22838;DHT22;11585;51.450;-0.240;2022-10-16T07:36:11;13.90;99.90
22838;DHT22;11585;51.450;-0.240;2022-10-16T07:38:38;13.90;99.90
22838;DHT22;11585;51.450;-0.240;2022-10-16T07:41:06;13.90;99.90
22838;DHT22;11585;51.450;-0.240;2022-10-16T07:43:32;13.90;99.90
22838;DHT22;11585;51.450;-0.240;2022-10-16T07:45:59;13.90;99.90
22838;DHT22;11585;51.450;-0.240;2022-10-16T07:48:27;13.90;99.90
22838;DHT22;11585;51.450;-0.240;2022-10-16T07:51:06;13.90;99.90
22838;DHT22;11585;51.450;-0.240;2022-10-16T07:53:33;13.90;99.90
22838;DHT22;11585;51.450;-0.240;2022-10-16T07:56:04;13.90;99.90
22838;DHT22;11585;51.450;-0.240;2022-10-16T07:58:31;13.90;99.90
22838;DHT22;11585;51.450;-0.240;2022-10-16T08:00:57;13.90;99.90
22838;DHT22;11585;51.450;-0.240;2022-10-16T08:03:24;13.90;99.90
22838;DHT22;11585;51.450;-0.240;2022-10-16T08:05:50;13.90;99.90
22838;DHT22;11585;51.450;-0.240;2022-10-16T08:08:17;13.90;99.90
22838;DHT22;11585;51.450;-0.240;2022-10-16T08:10:43;13.90;99.90
22838;DHT22;11585;51.450;-0.240;2022-10-16T08:13:09;13.90;99.90
22838;DHT22;11585;51.450;-0.240;2022-10-16T08:15:35;13.90;99.90
22838;DHT22;11585;51.450;-0.240;2022-10-16T08:18:03;13.90;99.90
22838;DHT22;11585;51.450;-0.240;2022-10-16T08:20:30;13.90;99.90
22838;DHT22;11585;51.450;-0.240;2022-10-16T08:22:56;13.90;99.90
22838;DHT22;11585;51.450;-0.240;2022-10-16T08:25:23;13.90;99.90
22838;DHT22;11585;51.450;-0.240;2022-10-16T08:27:49;14.00;99.90
22838;DHT22;11585;51.450;-0.240;2022-10-16T08:30:17;14.00;99.90
22838;DHT22;11585;51.450;-0.240;2022-10-16T08:32:42;14.00;99.90
22838;DHT22;11585;51.450;-0.240;2022-10-16T08:35:09;14.00;99.90
22838;DHT22;11585;51.450;-0.240;2022-10-16T08:37:35;14.00;99.90
22838;DHT22;11585;51.450;-0.240;2022-10-16T08:40:01;14.00;99.90
22838;DHT22;11585;51.450;-0.240;2022-10-16T08:45:30;14.10;99.90
22838;DHT22;11585;51.450;-0.240;2022-10-16T08:50:30;14.10;99.90
22838;DHT22;11585;51.450;-0.240;2022-10-16T08:52:57;14.10;99.90
22838;DHT22;11585;51.450;-0.240;2022-10-16T08:55:42;14.10;99.90
22838;DHT22;11585;51.450;-0.240;2022-10-16T08:58:28;14.20;99.90
22838;DHT22;11585;51.450;-0.240;2022-10-16T09:00:57;14.20;99.90
22838;DHT22;11585;51.450;-0.240;2022-10-16T09:06:12;14.20;99.90
22838;DHT22;11585;51.450;-0.240;2022-10-16T09:09:43;14.30;99.90
22838;DHT22;11585;51.450;-0.240;2022-10-16T09:20:34;14.40;99.90
22838;DHT22;11585;51.450;-0.240;2022-10-16T09:25:30;14.40;99.90
22838;DHT22;11585;51.450;-0.240;2022-10-16T09:27:56;14.40;99.90
22838;DHT22;11585;51.450;-0.240;2022-10-16T09:30:22;14.50;99.90
22838;DHT22;11585;51.450;-0.240;2022-10-16T09:32:52;14.50;99.90
22838;DHT22;11585;51.450;-0.240;2022-10-16T09:35:42;14.50;99.90
22838;DHT22;11585;51.450;-0.240;2022-10-16T09:38:27;14.60;99.90
22838;DHT22;11585;51.450;-0.240;2022-10-16T09:40:54;14.60;99.90
22838;DHT22;11585;51.450;-0.240;2022-10-16T09:43:58;14.60;99.90
22838;DHT22;11585;51.450;-0.240;2022-10-16T09:46:36;14.60;99.90
22838;DHT22;11585;51.450;-0.240;2022-10-16T09:49:23;14.70;99.90
22838;DHT22;11585;51.450;-0.240;2022-10-16T09:51:50;14.70;99.90
22838;DHT22;11585;51.450;-0.240;2022-10-16T09:54:18;14.70;99.90
22838;DHT22;11585;51.450;-0.240;2022-10-16T09:56:45;14.80;99.90
22838;DHT22;11585;51.450;-0.240;2022-10-16T09:59:22;14.80;99.90
22838;DHT22;11585;51.450;-0.240;2022-10-16T10:01:55;14.80;99.90
22838;DHT22;11585;51.450;-0.240;2022-10-16T10:04:22;14.80;99.90
22838;DHT22;11585;51.450;-0.240;2022-10-16T10:06:52;14.80;99.90
22838;DHT22;11585;51.450;-0.240;2022-10-16T10:09:23;14.90;99.90
22838;DHT22;11585;51.450;-0.240;2022-10-16T10:11:51;14.90;99.90
22838;DHT22;11585;51.450;-0.240;2022-10-16T10:19:48;15.00;99.90
22838;DHT22;11585;51.450;-0.240;2022-10-16T10:30:59;15.10;99.90
22838;DHT22;11585;51.450;-0.240;2022-10-16T10:44:32;15.10;99.90
22838;DHT22;11585;51.450;-0.240;2022-10-16T10:50:14;15.20;99.90
22838;DHT22;11585;51.450;-0.240;2022-10-16T11:01:39;15.30;99.90
22838;DHT22;11585;51.450;-0.240;2022-10-16T11:06:55;15.30;99.90
22838;DHT22;11585;51.450;-0.240;2022-10-16T11:09:35;15.30;99.90
22838;DHT22;11585;51.450;-0.240;2022-10-16T11:12:15;15.30;99.90
22838;DHT22;11585;51.450;-0.240;2022-10-16T11:15:02;15.40;99.90
22838;DHT22;11585;51.450;-0.240;2022-10-16T11:17:42;15.40;99.90
22838;DHT22;11585;51.450;-0.240;2022-10-16T11:20:40;15.40;99.90
22838;DHT22;11585;51.450;-0.240;2022-10-16T11:25:51;15.50;99.90
22838;DHT22;11585;51.450;-0.240;2022-10-16T11:28:23;15.50;99.90
22838;DHT22;11585;51.450;-0.240;2022-10-16T11:31:05;15.50;99.90
22838;DHT22;11585;51.450;-0.240;2022-10-16T11:33:40;15.50;99.90
22838;DHT22;11585;51.450;-0.240;2022-10-16T11:50:28;15.60;99.90
22838;DHT22;11585;51.450;-0.240;2022-10-16T11:55:40;15.70;99.90
22838;DHT22;11585;51.450;-0.240;2022-10-16T12:04:02;15.70;99.90
22838;DHT22;11585;51.450;-0.240;2022-10-16T12:09:29;15.80;99.90
22838;DHT22;11585;51.450;-0.240;2022-10-16T12:11:55;15.80;99.90
22838;DHT22;11585;51.450;-0.240;2022-10-16T12:20:01;15.80;99.90
22838;DHT22;11585;51.450;-0.240;2022-10-16T12:22:31;15.90;99.90
22838;DHT22;11585;51.450;-0.240;2022-10-16T12:24:57;15.90;99.90
22838;DHT22;11585;51.450;-0.240;2022-10-16T12:27:32;15.90;99.90
22838;DHT22;11585;51.450;-0.240;2022-10-16T12:30:01;15.90;99.90
22838;DHT22;11585;51.450;-0.240;2022-10-16T12:32:37;16.00;99.90
22838;DHT22;11585;51.450;-0.240;2022-10-16T12:35:04;16.00;99.90
22838;DHT22;11585;51.450;-0.240;2022-10-16T12:37:34;16.00;99.90
22838;DHT22;11585;51.450;-0.240;2022-10-16T12:40:13;16.00;99.90
22838;DHT22;11585;51.450;-0.240;2022-10-16T12:42:40;16.10;99.90
22838;DHT22;11585;51.450;-0.240;2022-10-16T12:45:32;16.10;99.90
22838;DHT22;11585;51.450;-0.240;2022-10-16T12:48:04;16.10;99.90
22838;DHT22;11585;51.450;-0.240;2022-10-16T12:50:36;16.10;99.90
22838;DHT22;11585;51.450;-0.240;2022-10-16T12:53:15;16.20;99.90
22838;DHT22;11585;51.450;-0.240;2022-10-16T12:56:19;16.20;99.90
22838;DHT22;11585;51.450;-0.240;2022-10-16T12:59:04;16.20;99.90
22838;DHT22;11585;51.450;-0.240;2022-10-16T13:04:24;16.20;99.90
22838;DHT22;11585;51.450;-0.240;2022-10-16T13:15:35;16.40;99.90
22838;DHT22;11585;51.450;-0.240;2022-10-16T13:21:02;16.40;99.90
22838;DHT22;11585;51.450;-0.240;2022-10-16T13:29:12;16.40;99.90
22838;DHT22;11585;51.450;-0.240;2022-10-16T13:31:39;16.50;99.90
22838;DHT22;11585;51.450;-0.240;2022-10-16T13:34:06;16.50;99.90
22838;DHT22;11585;51.450;-0.240;2022-10-16T13:36:48;16.50;99.90
22838;DHT22;11585;51.450;-0.240;2022-10-16T13:42:11;16.60;99.90
22838;DHT22;11585;51.450;-0.240;2022-10-16T13:44:49;16.60;99.90
22838;DHT22;11585;51.450;-0.240;2022-10-16T13:47:28;16.60;99.90
22838;DHT22;11585;51.450;-0.240;2022-10-16T13:50:02;16.60;99.90
22838;DHT22;11585;51.450;-0.240;2022-10-16T13:52:29;16.60;99.90
22838;DHT22;11585;51.450;-0.240;2022-10-16T13:54:54;16.60;99.90
22838;DHT22;11585;51.450;-0.240;2022-10-16T13:57:40;16.60;99.90
22838;DHT22;11585;51.450;-0.240;2022-10-16T14:00:24;16.70;99.90
22838;DHT22;11585;51.450;-0.240;2022-10-16T14:02:55;16.70;99.90
22838;DHT22;11585;51.450;-0.240;2022-10-16T14:05:23;16.70;99.90
22838;DHT22;11585;51.450;-0.240;2022-10-16T14:07:50;16.70;99.90
22838;DHT22;11585;51.450;-0.240;2022-10-16T14:10:29;16.70;99.90
22838;DHT22;11585;51.450;-0.240;2022-10-16T14:13:02;16.70;99.90
22838;DHT22;11585;51.450;-0.240;2022-10-16T14:15:30;16.70;99.90
22838;DHT22;11585;51.450;-0.240;2022-10-16T14:17:59;16.70;99.90
22838;DHT22;11585;51.450;-0.240;2022-10-16T14:20:30;16.80;99.90
22838;DHT22;11585;51.450;-0.240;2022-10-16T14:23:32;16.80;99.90
22838;DHT22;11585;51.450;-0.240;2022-10-16T14:28:34;16.80;99.90
22838;DHT22;11585;51.450;-0.240;2022-10-16T14:31:01;16.80;99.90
22838;DHT22;11585;51.450;-0.240;2022-10-16T14:36:05;16.80;99.90
22838;DHT22;11585;51.450;-0.240;2022-10-16T14:38:32;16.90;99.90
22838;DHT22;11585;51.450;-0.240;2022-10-16T14:40:59;16.90;99.90
22838;DHT22;11585;51.450;-0.240;2022-10-16T14:43:37;16.90;99.90
22838;DHT22;11585;51.450;-0.240;2022-10-16T14:46:09;16.90;99.90
22838;DHT22;11585;51.450;-0.240;2022-10-16T14:48:41;16.90;99.90
22838;DHT22;11585;51.450;-0.240;2022-10-16T14:51:13;16.90;99.90
22838;DHT22;11585;51.450;-0.240;2022-10-16T14:53:40;16.90;99.90
22838;DHT22;11585;51.450;-0.240;2022-10-16T14:56:14;16.90;99.90
22838;DHT22;11585;51.450;-0.240;2022-10-16T14:58:41;16.90;99.90
22838;DHT22;11585;51.450;-0.240;2022-10-16T15:01:09;16.90;99.90
22838;DHT22;11585;51.450;-0.240;2022-10-16T15:03:36;16.90;99.90
22838;DHT22;11585;51.450;-0.240;2022-10-16T15:06:01;16.90;99.90
22838;DHT22;11585;51.450;-0.240;2022-10-16T15:08:27;17.00;99.90
22838;DHT22;11585;51.450;-0.240;2022-10-16T15:10:53;16.90;99.90
22838;DHT22;11585;51.450;-0.240;2022-10-16T15:13:18;16.90;99.90
22838;DHT22;11585;51.450;-0.240;2022-10-16T15:15:46;17.00;99.90
22838;DHT22;11585;51.450;-0.240;2022-10-16T15:18:12;17.00;99.90
22838;DHT22;11585;51.450;-0.240;2022-10-16T15:20:40;17.00;99.90
22838;DHT22;11585;51.450;-0.240;2022-10-16T15:23:17;17.00;99.90
22838;DHT22;11585;51.450;-0.240;2022-10-16T15:25:51;17.00;99.90
22838;DHT22;11585;51.450;-0.240;2022-10-16T15:28:21;17.00;99.90
22838;DHT22;11585;51.450;-0.240;2022-10-16T15:30:50;17.00;99.90
22838;DHT22;11585;51.450;-0.240;2022-10-16T15:33:17;17.00;99.90
22838;DHT22;11585;51.450;-0.240;2022-10-16T15:35:45;17.00;99.90
22838;DHT22;11585;51.450;-0.240;2022-10-16T15:38:12;17.00;99.90
22838;DHT22;11585;51.450;-0.240;2022-10-16T15:40:38;17.00;99.90
22838;DHT22;11585;51.450;-0.240;2022-10-16T15:43:05;17.00;99.90
22838;DHT22;11585;51.450;-0.240;2022-10-16T15:45:30;17.00;99.90
22838;DHT22;11585;51.450;-0.240;2022-10-16T15:47:56;17.00;99.90
22838;DHT22;11585;51.450;-0.240;2022-10-16T15:50:21;17.00;99.90
22838;DHT22;11585;51.450;-0.240;2022-10-16T15:52:47;17.00;99.90
22838;DHT22;11585;51.450;-0.240;2022-10-16T15:55:14;17.00;99.90
22838;DHT22;11585;51.450;-0.240;2022-10-16T15:57:40;17.00;99.90
22838;DHT22;11585;51.450;-0.240;2022-10-16T16:00:11;17.00;99.90
22838;DHT22;11585;51.450;-0.240;2022-10-16T16:02:36;17.00;99.90
22838;DHT22;11585;51.450;-0.240;2022-10-16T16:05:03;17.00;99.90
22838;DHT22;11585;51.450;-0.240;2022-10-16T16:07:31;17.00;99.90
22838;DHT22;11585;51.450;-0.240;2022-10-16T16:09:57;17.00;99.90
22838;DHT22;11585;51.450;-0.240;2022-10-16T16:12:23;17.00;99.90
22838;DHT22;11585;51.450;-0.240;2022-10-16T16:14:48;17.00;99.90
22838;DHT22;11585;51.450;-0.240;2022-10-16T16:17:14;17.00;99.90
22838;DHT22;11585;51.450;-0.240;2022-10-16T16:19:40;17.00;99.90
22838;DHT22;11585;51.450;-0.240;2022-10-16T16:22:06;17.00;99.90
22838;DHT22;11585;51.450;-0.240;2022-10-16T16:24:31;17.00;99.90
22838;DHT22;11585;51.450;-0.240;2022-10-16T16:26:57;17.00;99.90
22838;DHT22;11585;51.450;-0.240;2022-10-16T16:29:22;17.00;99.90
22838;DHT22;11585;51.450;-0.240;2022-10-16T16:31:48;17.00;99.90
22838;DHT22;11585;51.450;-0.240;2022-10-16T16:34:14;17.00;99.90
22838;DHT22;11585;51.450;-0.240;2022-10-16T16:36:40;17.00;99.90
22838;DHT22;11585;51.450;-0.240;2022-10-16T16:39:06;17.00;99.90
22838;DHT22;11585;51.450;-0.240;2022-10-16T16:41:33;17.00;99.90
22838;DHT22;11585;51.450;-0.240;2022-10-16T16:44:04;17.00;99.90
22838;DHT22;11585;51.450;-0.240;2022-10-16T16:46:31;17.00;99.90
22838;DHT22;11585;51.450;-0.240;2022-10-16T16:48:58;17.00;99.90
22838;DHT22;11585;51.450;-0.240;2022-10-16T16:51:24;17.00;99.90
22838;DHT22;11585;51.450;-0.240;2022-10-16T16:53:52;17.00;99.90
22838;DHT22;11585;51.450;-0.240;2022-10-16T16:56:18;17.00;99.90
22838;DHT22;11585;51.450;-0.240;2022-10-16T16:58:50;17.00;99.90
22838;DHT22;11585;51.450;-0.240;2022-10-16T17:01:16;17.00;99.90
22838;DHT22;11585;51.450;-0.240;2022-10-16T17:03:43;16.90;99.90
22838;DHT22;11585;51.450;-0.240;2022-10-16T17:06:13;17.00;99.90
22838;DHT22;11585;51.450;-0.240;2022-10-16T17:08:43;17.00;99.90
22838;DHT22;11585;51.450;-0.240;2022-10-16T17:11:21;17.00;99.90
22838;DHT22;11585;51.450;-0.240;2022-10-16T17:13:48;17.00;99.90
22838;DHT22;11585;51.450;-0.240;2022-10-16T17:16:15;16.90;99.90
22838;DHT22;11585;51.450;-0.240;2022-10-16T17:18:41;16.90;99.90
22838;DHT22;11585;51.450;-0.240;2022-10-16T17:21:08;16.90;99.90
22838;DHT22;11585;51.450;-0.240;2022-10-16T17:23:35;16.90;99.90
22838;DHT22;11585;51.450;-0.240;2022-10-16T17:26:11;16.90;99.90
22838;DHT22;11585;51.450;-0.240;2022-10-16T17:28:39;16.90;99.90
22838;DHT22;11585;51.450;-0.240;2022-10-16T17:31:17;16.90;99.90
22838;DHT22;11585;51.450;-0.240;2022-10-16T17:33:43;16.90;99.90
22838;DHT22;11585;51.450;-0.240;2022-10-16T17:36:09;16.90;99.90
22838;DHT22;11585;51.450;-0.240;2022-10-16T17:38:36;16.90;99.90
22838;DHT22;11585;51.450;-0.240;2022-10-16T17:41:18;16.90;99.90
22838;DHT22;11585;51.450;-0.240;2022-10-16T17:43:44;16.90;99.90
22838;DHT22;11585;51.450;-0.240;2022-10-16T17:46:12;16.90;99.90
22838;DHT22;11585;51.450;-0.240;2022-10-16T17:48:39;16.90;99.90
22838;DHT22;11585;51.450;-0.240;2022-10-16T17:51:06;16.90;99.90
22838;DHT22;11585;51.450;-0.240;2022-10-16T17:53:32;16.90;99.90
22838;DHT22;11585;51.450;-0.240;2022-10-16T17:56:02;16.90;99.90
22838;DHT22;11585;51.450;-0.240;2022-10-16T17:58:27;16.90;99.90
22838;DHT22;11585;51.450;-0.240;2022-10-16T18:00:53;16.90;99.90
22838;DHT22;11585;51.450;-0.240;2022-10-16T18:03:19;16.90;99.90
22838;DHT22;11585;51.450;-0.240;2022-10-16T18:05:44;16.90;99.90
22838;DHT22;11585;51.450;-0.240;2022-10-16T18:08:10;16.90;99.90
22838;DHT22;11585;51.450;-0.240;2022-10-16T18:10:35;16.90;99.90
22838;DHT22;11585;51.450;-0.240;2022-10-16T18:13:01;16.90;99.90
22838;DHT22;11585;51.450;-0.240;2022-10-16T18:15:26;16.90;99.90
22838;DHT22;11585;51.450;-0.240;2022-10-16T18:17:52;16.90;99.90
22838;DHT22;11585;51.450;-0.240;2022-10-16T18:20:28;16.90;99.90
22838;DHT22;11585;51.450;-0.240;2022-10-16T18:28:09;16.90;99.90
22838;DHT22;11585;51.450;-0.240;2022-10-16T18:30:22;16.80;99.90
22838;DHT22;11585;51.450;-0.240;2022-10-16T18:33:05;16.80;99.90
22838;DHT22;11585;51.450;-0.240;2022-10-16T18:36:05;16.80;99.90
22838;DHT22;11585;51.450;-0.240;2022-10-16T18:38:53;16.80;99.90
22838;DHT22;11585;51.450;-0.240;2022-10-16T18:48:28;16.80;99.90